sensor_id;sensor_type;location;lat;lon;timestamp;temperature;humidity
22795;DHT22;11564;50.920;11.612;2023-12-14T00:01:08;6.80;99.90
22795;DHT22;11564;50.920;11.612;2023-12-14T00:03:35;6.80;99.90
22795;DHT22;11564;50.920;11.612;2023-12-14T00:06:01;6.80;99.90
22795;DHT22;11564;50.920;11.612;2023-12-14T00:08:26;6.80;99.90
22795;DHT22;11564;50.920;11.612;2023-12-14T00:10:52;6.80;99.90
22795;DHT22;11564;50.920;11.612;2023-12-14T00:13:17;6.80;99.90
22795;DHT22;11564;50.920;11.612;2023-12-14T00:15:43;6.80;99.90
22795;DHT22;11564;50.920;11.612;2023-12-14T00:18:10;6.80;99.90
22795;DHT22;11564;50.920;11.612;2023-12-14T00:20:35;6.80;99.90
22795;DHT22;11564;50.920;11.612;2023-12-14T00:23:01;6.90;99.90
22795;DHT22;11564;50.920;11.612;2023-12-14T00:25:26;6.80;99.90
22795;DHT22;11564;50.920;11.612;2023-12-14T00:27:52;6.80;99.90
22795;DHT22;11564;50.920;11.612;2023-12-14T00:30:17;6.80;99.90
22795;DHT22;11564;50.920;11.612;2023-12-14T00:32:43;6.80;99.90
22795;DHT22;11564;50.920;11.612;2023-12-14T00:35:08;6.80;99.90
22795;DHT22;11564;50.920;11.612;2023-12-14T00:37:34;6.80;99.90
22795;DHT22;11564;50.920;11.612;2023-12-14T00:39:59;6.80;99.90
22795;DHT22;11564;50.920;11.612;2023-12-14T00:42:25;6.80;99.90
22795;DHT22;11564;50.920;11.612;2023-12-14T00:44:50;6.80;99.90
22795;DHT22;11564;50.920;11.612;2023-12-14T00:47:16;6.90;99.90
22795;DHT22;11564;50.920;11.612;2023-12-14T00:49:41;6.90;99.90
22795;DHT22;11564;50.920;11.612;2023-12-14T00:52:10;6.90;99.90
22795;DHT22;11564;50.920;11.612;2023-12-14T00:54:35;6.90;99.90
22795;DHT22;11564;50.920;11.612;2023-12-14T00:57:01;6.90;99.90
22795;DHT22;11564;50.920;11.612;2023-12-14T00:59:26;6.90;99.90
22795;DHT22;11564;50.920;11.612;2023-12-14T01:01:54;6.90;99.90
22795;DHT22;11564;50.920;11.612;2023-12-14T01:04:19;6.90;99.90
22795;DHT22;11564;50.920;11.612;2023-12-14T01:06:45;6.90;99.90
22795;DHT22;11564;50.920;11.612;2023-12-14T01:09:10;6.80;99.90
22795;DHT22;11564;50.920;11.612;2023-12-14T01:11:36;6.90;99.90
22795;DHT22;11564;50.920;11.612;2023-12-14T01:14:01;6.90;99.90
22795;DHT22;11564;50.920;11.612;2023-12-14T01:16:27;6.70;99.90
22795;DHT22;11564;50.920;11.612;2023-12-14T01:18:52;6.70;99.90
22795;DHT22;11564;50.920;11.612;2023-12-14T01:21:18;6.70;99.90
22795;DHT22;11564;50.920;11.612;2023-12-14T01:23:44;6.60;99.90
22795;DHT22;11564;50.920;11.612;2023-12-14T01:26:09;6.70;99.90
22795;DHT22;11564;50.920;11.612;2023-12-14T01:28:35;6.60;99.90
22795;DHT22;11564;50.920;11.612;2023-12-14T01:31:00;6.70;99.90
22795;DHT22;11564;50.920;11.612;2023-12-14T01:33:26;6.70;99.90
22795;DHT22;11564;50.920;11.612;2023-12-14T01:35:51;6.70;99.90
22795;DHT22;11564;50.920;11.612;2023-12-14T01:38:17;6.70;99.90
22795;DHT22;11564;50.920;11.612;2023-12-14T01:40:42;6.70;99.90
22795;DHT22;11564;50.920;11.612;2023-12-14T01:43:08;6.70;99.90
22795;DHT22;11564;50.920;11.612;2023-12-14T01:45:36;6.80;99.90
22795;DHT22;11564;50.920;11.612;2023-12-14T01:48:01;6.80;99.90
22795;DHT22;11564;50.920;11.612;2023-12-14T01:50:27;6.80;99.90
22795;DHT22;11564;50.920;11.612;2023-12-14T01:52:53;6.80;99.90
22795;DHT22;11564;50.920;11.612;2023-12-14T01:55:18;6.90;99.90
22795;DHT22;11564;50.920;11.612;2023-12-14T01:57:44;6.80;99.90
22795;DHT22;11564;50.920;11.612;2023-12-14T02:00:15;6.90;99.90
22795;DHT22;11564;50.920;11.612;2023-12-14T02:02:44;6.90;99.90
22795;DHT22;11564;50.920;11.612;2023-12-14T02:05:10;6.90;99.90
22795;DHT22;11564;50.920;11.612;2023-12-14T02:07:35;6.90;99.90
22795;DHT22;11564;50.920;11.612;2023-12-14T02:10:01;7.00;99.90
22795;DHT22;11564;50.920;11.612;2023-12-14T02:12:27;6.90;99.90
22795;DHT22;11564;50.920;11.612;2023-12-14T02:14:52;6.70;99.90
22795;DHT22;11564;50.920;11.612;2023-12-14T02:17:18;6.60;99.90
22795;DHT22;11564;50.920;11.612;2023-12-14T02:19:43;6.70;99.90
22795;DHT22;11564;50.920;11.612;2023-12-14T02:22:09;6.80;99.90
22795;DHT22;11564;50.920;11.612;2023-12-14T02:24:34;6.70;99.90
22795;DHT22;11564;50.920;11.612;2023-12-14T02:27:00;6.80;99.90
22795;DHT22;11564;50.920;11.612;2023-12-14T02:29:25;6.90;99.90
22795;DHT22;11564;50.920;11.612;2023-12-14T02:31:51;6.90;99.90
22795;DHT22;11564;50.920;11.612;2023-12-14T02:34:16;6.90;99.90
22795;DHT22;11564;50.920;11.612;2023-12-14T02:36:42;7.00;99.90
22795;DHT22;11564;50.920;11.612;2023-12-14T02:39:08;7.00;99.90
22795;DHT22;11564;50.920;11.612;2023-12-14T02:41:33;7.00;99.90
22795;DHT22;11564;50.920;11.612;2023-12-14T02:43:59;6.90;99.90
22795;DHT22;11564;50.920;11.612;2023-12-14T02:46:24;6.90;99.90
22795;DHT22;11564;50.920;11.612;2023-12-14T02:48:50;6.90;99.90
22795;DHT22;11564;50.920;11.612;2023-12-14T02:51:15;6.80;99.90
22795;DHT22;11564;50.920;11.612;2023-12-14T02:53:41;6.80;99.90
22795;DHT22;11564;50.920;11.612;2023-12-14T02:56:07;6.80;99.90
22795;DHT22;11564;50.920;11.612;2023-12-14T02:58:34;6.70;99.90
22795;DHT22;11564;50.920;11.612;2023-12-14T03:00:59;6.70;99.90
22795;DHT22;11564;50.920;11.612;2023-12-14T03:03:25;6.70;99.90
22795;DHT22;11564;50.920;11.612;2023-12-14T03:05:50;6.60;99.90
22795;DHT22;11564;50.920;11.612;2023-12-14T03:08:16;6.60;99.90
22795;DHT22;11564;50.920;11.612;2023-12-14T03:10:41;6.50;99.90
22795;DHT22;11564;50.920;11.612;2023-12-14T03:13:07;6.60;99.90
22795;DHT22;11564;50.920;11.612;2023-12-14T03:15:32;6.50;99.90
22795;DHT22;11564;50.920;11.612;2023-12-14T03:17:58;6.40;99.90
22795;DHT22;11564;50.920;11.612;2023-12-14T03:20:24;6.50;99.90
22795;DHT22;11564;50.920;11.612;2023-12-14T03:22:50;6.50;99.90
22795;DHT22;11564;50.920;11.612;2023-12-14T03:25:15;6.50;99.90
22795;DHT22;11564;50.920;11.612;2023-12-14T03:27:41;6.60;99.90
22795;DHT22;11564;50.920;11.612;2023-12-14T03:30:06;6.50;99.90
22795;DHT22;11564;50.920;11.612;2023-12-14T03:32:35;6.60;99.90
22795;DHT22;11564;50.920;11.612;2023-12-14T03:35:00;6.70;99.90
22795;DHT22;11564;50.920;11.612;2023-12-14T03:37:26;6.60;99.90
22795;DHT22;11564;50.920;11.612;2023-12-14T03:39:51;6.60;99.90
22795;DHT22;11564;50.920;11.612;2023-12-14T03:42:17;6.60;99.90
22795;DHT22;11564;50.920;11.612;2023-12-14T03:44:42;6.70;99.90
22795;DHT22;11564;50.920;11.612;2023-12-14T03:47:08;6.70;99.90
22795;DHT22;11564;50.920;11.612;2023-12-14T03:49:40;6.70;99.90
22795;DHT22;11564;50.920;11.612;2023-12-14T03:52:05;6.80;99.90
22795;DHT22;11564;50.920;11.612;2023-12-14T03:54:31;6.70;99.90
22795;DHT22;11564;50.920;11.612;2023-12-14T03:56:56;6.60;99.90
22795;DHT22;11564;50.920;11.612;2023-12-14T03:59:22;6.60;99.90
22795;DHT22;11564;50.920;11.612;2023-12-14T04:01:47;6.40;99.90
22795;DHT22;11564;50.920;11.612;2023-12-14T04:04:13;6.30;99.90
22795;DHT22;11564;50.920;11.612;2023-12-14T04:06:38;6.20;99.90
22795;DHT22;11564;50.920;11.612;2023-12-14T04:09:04;6.30;99.90
22795;DHT22;11564;50.920;11.612;2023-12-14T04:11:30;6.30;99.90
22795;DHT22;11564;50.920;11.612;2023-12-14T04:13:55;6.30;99.90
22795;DHT22;11564;50.920;11.612;2023-12-14T04:16:21;6.30;99.90
22795;DHT22;11564;50.920;11.612;2023-12-14T04:18:47;6.40;99.90
22795;DHT22;11564;50.920;11.612;2023-12-14T04:21:13;6.40;99.90
22795;DHT22;11564;50.920;11.612;2023-12-14T04:23:39;6.20;99.90
22795;DHT22;11564;50.920;11.612;2023-12-14T04:26:04;6.10;99.90
22795;DHT22;11564;50.920;11.612;2023-12-14T04:28:30;6.20;99.90
22795;DHT22;11564;50.920;11.612;2023-12-14T04:30:55;6.00;99.90
22795;DHT22;11564;50.920;11.612;2023-12-14T04:33:21;6.10;99.90
22795;DHT22;11564;50.920;11.612;2023-12-14T04:35:47;6.00;99.90
22795;DHT22;11564;50.920;11.612;2023-12-14T04:38:12;5.90;99.90
22795;DHT22;11564;50.920;11.612;2023-12-14T04:40:38;6.00;99.90
22795;DHT22;11564;50.920;11.612;2023-12-14T04:43:03;6.00;99.90
22795;DHT22;11564;50.920;11.612;2023-12-14T04:45:29;6.10;99.90
22795;DHT22;11564;50.920;11.612;2023-12-14T04:47:54;6.20;99.90
22795;DHT22;11564;50.920;11.612;2023-12-14T04:50:20;6.10;99.90
22795;DHT22;11564;50.920;11.612;2023-12-14T04:52:46;6.20;99.90
22795;DHT22;11564;50.920;11.612;2023-12-14T04:55:11;6.20;99.90
22795;DHT22;11564;50.920;11.612;2023-12-14T04:57:37;6.10;99.90
22795;DHT22;11564;50.920;11.612;2023-12-14T05:00:04;6.20;99.90
22795;DHT22;11564;50.920;11.612;2023-12-14T05:02:31;6.10;99.90
22795;DHT22;11564;50.920;11.612;2023-12-14T05:04:57;6.20;99.90
22795;DHT22;11564;50.920;11.612;2023-12-14T05:07:22;6.20;99.90
22795;DHT22;11564;50.920;11.612;2023-12-14T05:09:49;6.20;99.90
22795;DHT22;11564;50.920;11.612;2023-12-14T05:12:14;6.20;99.90
22795;DHT22;11564;50.920;11.612;2023-12-14T05:14:40;6.20;99.90
22795;DHT22;11564;50.920;11.612;2023-12-14T05:17:05;6.20;99.90
22795;DHT22;11564;50.920;11.612;2023-12-14T05:19:34;6.20;99.90
22795;DHT22;11564;50.920;11.612;2023-12-14T05:21:59;6.20;99.90
22795;DHT22;11564;50.920;11.612;2023-12-14T05:24:25;6.10;99.90
22795;DHT22;11564;50.920;11.612;2023-12-14T05:26:50;6.10;99.90
22795;DHT22;11564;50.920;11.612;2023-12-14T05:29:16;6.20;99.90
22795;DHT22;11564;50.920;11.612;2023-12-14T05:31:42;6.10;99.90
22795;DHT22;11564;50.920;11.612;2023-12-14T05:34:08;6.20;99.90
22795;DHT22;11564;50.920;11.612;2023-12-14T05:36:33;6.20;99.90
22795;DHT22;11564;50.920;11.612;2023-12-14T05:38:59;6.10;99.90
22795;DHT22;11564;50.920;11.612;2023-12-14T05:41:24;6.10;99.90
22795;DHT22;11564;50.920;11.612;2023-12-14T05:43:50;6.10;99.90
22795;DHT22;11564;50.920;11.612;2023-12-14T05:46:24;5.90;99.90
22795;DHT22;11564;50.920;11.612;2023-12-14T05:48:50;5.80;99.90
22795;DHT22;11564;50.920;11.612;2023-12-14T05:51:32;5.90;99.90
22795;DHT22;11564;50.920;11.612;2023-12-14T05:53:58;5.90;99.90
22795;DHT22;11564;50.920;11.612;2023-12-14T05:56:24;5.90;99.90
22795;DHT22;11564;50.920;11.612;2023-12-14T05:58:49;5.90;99.90
22795;DHT22;11564;50.920;11.612;2023-12-14T06:01:18;5.90;99.90
22795;DHT22;11564;50.920;11.612;2023-12-14T06:03:44;5.90;99.90
22795;DHT22;11564;50.920;11.612;2023-12-14T06:06:10;6.00;99.90
22795;DHT22;11564;50.920;11.612;2023-12-14T06:08:37;6.00;99.90
22795;DHT22;11564;50.920;11.612;2023-12-14T06:11:02;6.10;99.90
22795;DHT22;11564;50.920;11.612;2023-12-14T06:13:28;6.00;99.90
22795;DHT22;11564;50.920;11.612;2023-12-14T06:15:54;6.00;99.90
22795;DHT22;11564;50.920;11.612;2023-12-14T06:18:19;6.00;99.90
22795;DHT22;11564;50.920;11.612;2023-12-14T06:20:45;5.90;99.90
22795;DHT22;11564;50.920;11.612;2023-12-14T06:23:10;5.90;99.90
22795;DHT22;11564;50.920;11.612;2023-12-14T06:25:36;5.90;99.90
22795;DHT22;11564;50.920;11.612;2023-12-14T06:28:01;5.80;99.90
22795;DHT22;11564;50.920;11.612;2023-12-14T06:30:27;5.90;99.90
22795;DHT22;11564;50.920;11.612;2023-12-14T06:32:52;5.90;99.90
22795;DHT22;11564;50.920;11.612;2023-12-14T06:35:18;5.90;99.90
22795;DHT22;11564;50.920;11.612;2023-12-14T06:37:43;5.90;99.90
22795;DHT22;11564;50.920;11.612;2023-12-14T06:40:09;5.90;99.90
22795;DHT22;11564;50.920;11.612;2023-12-14T06:42:35;5.90;99.90
22795;DHT22;11564;50.920;11.612;2023-12-14T06:45:02;5.80;99.90
22795;DHT22;11564;50.920;11.612;2023-12-14T06:47:28;5.90;99.90
22795;DHT22;11564;50.920;11.612;2023-12-14T06:49:53;5.80;99.90
22795;DHT22;11564;50.920;11.612;2023-12-14T06:52:19;5.60;99.90
22795;DHT22;11564;50.920;11.612;2023-12-14T06:54:44;5.40;99.90
22795;DHT22;11564;50.920;11.612;2023-12-14T06:57:10;5.20;99.90
22795;DHT22;11564;50.920;11.612;2023-12-14T06:59:36;5.30;99.90
22795;DHT22;11564;50.920;11.612;2023-12-14T07:02:01;5.30;99.90
22795;DHT22;11564;50.920;11.612;2023-12-14T07:04:27;5.30;99.90
22795;DHT22;11564;50.920;11.612;2023-12-14T07:06:52;5.40;99.90
22795;DHT22;11564;50.920;11.612;2023-12-14T07:09:18;5.50;99.90
22795;DHT22;11564;50.920;11.612;2023-12-14T07:11:44;5.50;99.90
22795;DHT22;11564;50.920;11.612;2023-12-14T07:14:10;5.60;99.90
22795;DHT22;11564;50.920;11.612;2023-12-14T07:16:36;5.60;99.90
22795;DHT22;11564;50.920;11.612;2023-12-14T07:19:01;5.60;99.90
22795;DHT22;11564;50.920;11.612;2023-12-14T07:21:27;5.60;99.90
22795;DHT22;11564;50.920;11.612;2023-12-14T07:23:52;5.60;99.90
22795;DHT22;11564;50.920;11.612;2023-12-14T07:26:18;5.60;99.90
22795;DHT22;11564;50.920;11.612;2023-12-14T07:28:43;5.70;99.90
22795;DHT22;11564;50.920;11.612;2023-12-14T07:31:09;5.60;99.90
22795;DHT22;11564;50.920;11.612;2023-12-14T07:33:34;5.30;99.90
22795;DHT22;11564;50.920;11.612;2023-12-14T07:36:01;5.10;99.90
22795;DHT22;11564;50.920;11.612;2023-12-14T07:38:26;4.80;99.90
22795;DHT22;11564;50.920;11.612;2023-12-14T07:40:52;4.60;99.90
22795;DHT22;11564;50.920;11.612;2023-12-14T07:43:18;4.50;99.90
22795;DHT22;11564;50.920;11.612;2023-12-14T07:45:43;4.50;99.90
22795;DHT22;11564;50.920;11.612;2023-12-14T07:48:09;4.60;99.90
22795;DHT22;11564;50.920;11.612;2023-12-14T07:50:35;4.60;99.90
22795;DHT22;11564;50.920;11.612;2023-12-14T07:53:00;4.50;99.90
22795;DHT22;11564;50.920;11.612;2023-12-14T07:55:26;4.40;99.90
22795;DHT22;11564;50.920;11.612;2023-12-14T07:57:51;4.60;99.90
22795;DHT22;11564;50.920;11.612;2023-12-14T08:00:17;4.50;99.90
22795;DHT22;11564;50.920;11.612;2023-12-14T08:02:42;4.60;99.90
22795;DHT22;11564;50.920;11.612;2023-12-14T08:05:08;4.70;99.90
22795;DHT22;11564;50.920;11.612;2023-12-14T08:07:34;4.70;99.90
22795;DHT22;11564;50.920;11.612;2023-12-14T08:10:00;4.80;99.90
22795;DHT22;11564;50.920;11.612;2023-12-14T08:12:26;5.00;99.90
22795;DHT22;11564;50.920;11.612;2023-12-14T08:14:52;5.00;99.90
22795;DHT22;11564;50.920;11.612;2023-12-14T08:17:17;5.10;99.90
22795;DHT22;11564;50.920;11.612;2023-12-14T08:19:43;5.10;99.90
22795;DHT22;11564;50.920;11.612;2023-12-14T08:22:09;5.20;99.90
22795;DHT22;11564;50.920;11.612;2023-12-14T08:24:36;5.20;99.90
22795;DHT22;11564;50.920;11.612;2023-12-14T08:27:03;5.30;99.90
22795;DHT22;11564;50.920;11.612;2023-12-14T08:29:29;5.30;99.90
22795;DHT22;11564;50.920;11.612;2023-12-14T08:31:54;5.30;99.90
22795;DHT22;11564;50.920;11.612;2023-12-14T08:34:23;5.20;99.90
22795;DHT22;11564;50.920;11.612;2023-12-14T08:36:48;5.20;99.90
22795;DHT22;11564;50.920;11.612;2023-12-14T08:39:14;5.20;99.90
22795;DHT22;11564;50.920;11.612;2023-12-14T08:41:39;5.20;99.90
22795;DHT22;11564;50.920;11.612;2023-12-14T08:44:06;5.30;99.90
22795;DHT22;11564;50.920;11.612;2023-12-14T08:46:41;5.10;99.90
22795;DHT22;11564;50.920;11.612;2023-12-14T08:49:07;5.10;99.90
22795;DHT22;11564;50.920;11.612;2023-12-14T08:51:33;4.90;99.90
22795;DHT22;11564;50.920;11.612;2023-12-14T08:53:58;4.80;99.90
22795;DHT22;11564;50.920;11.612;2023-12-14T08:56:24;4.70;99.90
22795;DHT22;11564;50.920;11.612;2023-12-14T08:58:49;4.70;99.90
22795;DHT22;11564;50.920;11.612;2023-12-14T09:01:21;4.90;99.90
22795;DHT22;11564;50.920;11.612;2023-12-14T09:03:47;4.90;99.90
22795;DHT22;11564;50.920;11.612;2023-12-14T09:06:13;5.10;99.90
22795;DHT22;11564;50.920;11.612;2023-12-14T09:08:40;5.20;99.90
22795;DHT22;11564;50.920;11.612;2023-12-14T09:11:06;5.00;99.90
22795;DHT22;11564;50.920;11.612;2023-12-14T09:13:31;5.00;99.90
22795;DHT22;11564;50.920;11.612;2023-12-14T09:15:57;5.10;99.90
22795;DHT22;11564;50.920;11.612;2023-12-14T09:18:22;5.10;99.90
22795;DHT22;11564;50.920;11.612;2023-12-14T09:20:49;4.80;99.90
22795;DHT22;11564;50.920;11.612;2023-12-14T09:23:15;4.60;99.90
22795;DHT22;11564;50.920;11.612;2023-12-14T09:25:41;4.60;99.90
22795;DHT22;11564;50.920;11.612;2023-12-14T09:28:06;4.70;99.90
22795;DHT22;11564;50.920;11.612;2023-12-14T09:30:33;4.80;99.90
22795;DHT22;11564;50.920;11.612;2023-12-14T09:32:58;4.60;99.90
22795;DHT22;11564;50.920;11.612;2023-12-14T09:35:24;4.60;99.90
22795;DHT22;11564;50.920;11.612;2023-12-14T09:37:49;4.70;99.90
22795;DHT22;11564;50.920;11.612;2023-12-14T09:40:15;4.90;99.90
22795;DHT22;11564;50.920;11.612;2023-12-14T09:42:42;4.90;99.90
22795;DHT22;11564;50.920;11.612;2023-12-14T09:45:08;5.00;99.90
22795;DHT22;11564;50.920;11.612;2023-12-14T09:47:34;5.10;99.90
22795;DHT22;11564;50.920;11.612;2023-12-14T09:50:00;5.20;99.90
22795;DHT22;11564;50.920;11.612;2023-12-14T09:52:26;5.30;99.90
22795;DHT22;11564;50.920;11.612;2023-12-14T09:54:51;5.30;99.90
22795;DHT22;11564;50.920;11.612;2023-12-14T09:57:20;5.40;99.90
22795;DHT22;11564;50.920;11.612;2023-12-14T09:59:52;5.40;99.90
22795;DHT22;11564;50.920;11.612;2023-12-14T10:02:18;5.50;99.90
22795;DHT22;11564;50.920;11.612;2023-12-14T10:04:44;5.50;99.90
22795;DHT22;11564;50.920;11.612;2023-12-14T10:07:09;5.40;99.90
22795;DHT22;11564;50.920;11.612;2023-12-14T10:09:36;5.40;99.90
22795;DHT22;11564;50.920;11.612;2023-12-14T10:12:02;5.40;99.90
22795;DHT22;11564;50.920;11.612;2023-12-14T10:14:29;5.40;99.90
22795;DHT22;11564;50.920;11.612;2023-12-14T10:16:55;5.30;99.90
22795;DHT22;11564;50.920;11.612;2023-12-14T10:19:20;5.30;99.90
22795;DHT22;11564;50.920;11.612;2023-12-14T10:21:47;5.30;99.90
22795;DHT22;11564;50.920;11.612;2023-12-14T10:24:13;5.00;99.90
22795;DHT22;11564;50.920;11.612;2023-12-14T10:26:38;4.90;99.90
22795;DHT22;11564;50.920;11.612;2023-12-14T10:29:04;4.80;99.90
22795;DHT22;11564;50.920;11.612;2023-12-14T10:31:30;4.70;99.90
22795;DHT22;11564;50.920;11.612;2023-12-14T10:33:56;4.60;99.90
22795;DHT22;11564;50.920;11.612;2023-12-14T10:36:22;4.60;99.90
22795;DHT22;11564;50.920;11.612;2023-12-14T10:38:53;4.60;99.90
22795;DHT22;11564;50.920;11.612;2023-12-14T10:41:22;4.50;99.90
22795;DHT22;11564;50.920;11.612;2023-12-14T10:43:48;4.40;99.90
22795;DHT22;11564;50.920;11.612;2023-12-14T10:46:14;4.60;99.90
22795;DHT22;11564;50.920;11.612;2023-12-14T10:48:40;4.60;99.90
22795;DHT22;11564;50.920;11.612;2023-12-14T10:51:09;4.60;99.90
22795;DHT22;11564;50.920;11.612;2023-12-14T10:53:37;4.40;99.90
22795;DHT22;11564;50.920;11.612;2023-12-14T10:56:03;4.30;99.90
22795;DHT22;11564;50.920;11.612;2023-12-14T11:01:17;4.30;99.90
22795;DHT22;11564;50.920;11.612;2023-12-14T11:03:43;4.30;99.90
22795;DHT22;11564;50.920;11.612;2023-12-14T11:08:53;4.20;99.90
22795;DHT22;11564;50.920;11.612;2023-12-14T11:11:20;4.10;99.90
22795;DHT22;11564;50.920;11.612;2023-12-14T11:13:47;4.10;99.90
22795;DHT22;11564;50.920;11.612;2023-12-14T11:16:15;4.10;99.90
22795;DHT22;11564;50.920;11.612;2023-12-14T11:18:41;4.10;99.90
22795;DHT22;11564;50.920;11.612;2023-12-14T11:21:06;4.00;99.90
22795;DHT22;11564;50.920;11.612;2023-12-14T11:23:36;4.20;99.90
22795;DHT22;11564;50.920;11.612;2023-12-14T11:26:05;4.30;99.90
22795;DHT22;11564;50.920;11.612;2023-12-14T11:28:32;4.20;99.90
22795;DHT22;11564;50.920;11.612;2023-12-14T11:30:57;4.20;99.90
22795;DHT22;11564;50.920;11.612;2023-12-14T11:33:23;4.20;99.90
22795;DHT22;11564;50.920;11.612;2023-12-14T11:35:50;4.20;99.90
22795;DHT22;11564;50.920;11.612;2023-12-14T11:38:15;4.10;99.90
22795;DHT22;11564;50.920;11.612;2023-12-14T11:40:42;4.00;99.90
22795;DHT22;11564;50.920;11.612;2023-12-14T11:43:08;4.00;99.90
22795;DHT22;11564;50.920;11.612;2023-12-14T11:45:38;4.00;99.90
22795;DHT22;11564;50.920;11.612;2023-12-14T11:48:07;4.00;99.90
22795;DHT22;11564;50.920;11.612;2023-12-14T11:50:36;4.10;99.90
22795;DHT22;11564;50.920;11.612;2023-12-14T11:53:02;4.00;99.90
22795;DHT22;11564;50.920;11.612;2023-12-14T11:55:30;4.00;99.90
22795;DHT22;11564;50.920;11.612;2023-12-14T11:57:56;4.00;99.90
22795;DHT22;11564;50.920;11.612;2023-12-14T12:00:23;3.90;99.90
22795;DHT22;11564;50.920;11.612;2023-12-14T12:02:48;4.10;99.90
22795;DHT22;11564;50.920;11.612;2023-12-14T12:05:14;4.10;99.90
22795;DHT22;11564;50.920;11.612;2023-12-14T12:07:46;4.10;99.90
22795;DHT22;11564;50.920;11.612;2023-12-14T12:10:12;4.00;99.90
22795;DHT22;11564;50.920;11.612;2023-12-14T12:12:38;4.00;99.90
22795;DHT22;11564;50.920;11.612;2023-12-14T12:15:03;4.10;99.90
22795;DHT22;11564;50.920;11.612;2023-12-14T12:17:29;4.20;99.90
22795;DHT22;11564;50.920;11.612;2023-12-14T12:19:57;4.20;99.90
22795;DHT22;11564;50.920;11.612;2023-12-14T12:22:22;4.10;99.90
22795;DHT22;11564;50.920;11.612;2023-12-14T12:24:48;4.10;99.90
22795;DHT22;11564;50.920;11.612;2023-12-14T12:27:14;4.00;99.90
22795;DHT22;11564;50.920;11.612;2023-12-14T12:29:39;4.10;99.90
22795;DHT22;11564;50.920;11.612;2023-12-14T12:32:05;4.10;99.90
22795;DHT22;11564;50.920;11.612;2023-12-14T12:34:30;4.20;99.90
22795;DHT22;11564;50.920;11.612;2023-12-14T12:36:56;4.20;99.90
22795;DHT22;11564;50.920;11.612;2023-12-14T12:39:23;4.20;99.90
22795;DHT22;11564;50.920;11.612;2023-12-14T12:41:48;4.20;99.90
22795;DHT22;11564;50.920;11.612;2023-12-14T12:44:14;4.10;99.90
22795;DHT22;11564;50.920;11.612;2023-12-14T12:46:39;4.00;99.90
22795;DHT22;11564;50.920;11.612;2023-12-14T12:49:05;4.10;99.90
22795;DHT22;11564;50.920;11.612;2023-12-14T12:51:31;4.10;99.90
22795;DHT22;11564;50.920;11.612;2023-12-14T12:53:57;4.20;99.90
22795;DHT22;11564;50.920;11.612;2023-12-14T12:56:23;4.10;99.90
22795;DHT22;11564;50.920;11.612;2023-12-14T12:58:49;4.10;99.90
22795;DHT22;11564;50.920;11.612;2023-12-14T13:01:17;4.00;99.90
22795;DHT22;11564;50.920;11.612;2023-12-14T13:03:42;3.90;99.90
22795;DHT22;11564;50.920;11.612;2023-12-14T13:06:08;3.90;99.90
22795;DHT22;11564;50.920;11.612;2023-12-14T13:08:34;3.90;99.90
22795;DHT22;11564;50.920;11.612;2023-12-14T13:10:59;3.90;99.90
22795;DHT22;11564;50.920;11.612;2023-12-14T13:13:25;4.10;99.90
22795;DHT22;11564;50.920;11.612;2023-12-14T13:15:50;4.00;99.90
22795;DHT22;11564;50.920;11.612;2023-12-14T13:18:16;4.10;99.90
22795;DHT22;11564;50.920;11.612;2023-12-14T13:20:42;4.10;99.90
22795;DHT22;11564;50.920;11.612;2023-12-14T13:23:08;4.10;99.90
22795;DHT22;11564;50.920;11.612;2023-12-14T13:25:35;4.00;99.90
22795;DHT22;11564;50.920;11.612;2023-12-14T13:28:02;3.90;99.90
22795;DHT22;11564;50.920;11.612;2023-12-14T13:30:29;3.90;99.90
22795;DHT22;11564;50.920;11.612;2023-12-14T13:32:55;4.00;99.90
22795;DHT22;11564;50.920;11.612;2023-12-14T13:35:21;4.10;99.90
22795;DHT22;11564;50.920;11.612;2023-12-14T13:37:48;3.80;99.90
22795;DHT22;11564;50.920;11.612;2023-12-14T13:40:14;4.00;99.90
22795;DHT22;11564;50.920;11.612;2023-12-14T13:42:42;3.80;99.90
22795;DHT22;11564;50.920;11.612;2023-12-14T13:45:07;3.70;99.90
22795;DHT22;11564;50.920;11.612;2023-12-14T13:47:33;3.60;99.90
22795;DHT22;11564;50.920;11.612;2023-12-14T13:49:59;3.60;99.90
22795;DHT22;11564;50.920;11.612;2023-12-14T13:52:24;3.70;99.90
22795;DHT22;11564;50.920;11.612;2023-12-14T13:54:50;3.60;99.90
22795;DHT22;11564;50.920;11.612;2023-12-14T13:57:15;3.70;99.90
22795;DHT22;11564;50.920;11.612;2023-12-14T13:59:41;3.70;99.90
22795;DHT22;11564;50.920;11.612;2023-12-14T14:02:06;3.60;99.90
22795;DHT22;11564;50.920;11.612;2023-12-14T14:04:32;3.60;99.90
22795;DHT22;11564;50.920;11.612;2023-12-14T14:06:58;3.50;99.90
22795;DHT22;11564;50.920;11.612;2023-12-14T14:09:23;3.50;99.90
22795;DHT22;11564;50.920;11.612;2023-12-14T14:11:49;3.60;99.90
22795;DHT22;11564;50.920;11.612;2023-12-14T14:14:15;3.50;99.90
22795;DHT22;11564;50.920;11.612;2023-12-14T14:16:41;3.60;99.90
22795;DHT22;11564;50.920;11.612;2023-12-14T14:19:07;3.70;99.90
22795;DHT22;11564;50.920;11.612;2023-12-14T14:21:32;3.80;99.90
22795;DHT22;11564;50.920;11.612;2023-12-14T14:23:58;3.90;99.90
22795;DHT22;11564;50.920;11.612;2023-12-14T14:26:24;3.90;99.90
22795;DHT22;11564;50.920;11.612;2023-12-14T14:28:50;4.10;99.90
22795;DHT22;11564;50.920;11.612;2023-12-14T14:31:15;4.10;99.90
22795;DHT22;11564;50.920;11.612;2023-12-14T14:33:41;4.00;99.90
22795;DHT22;11564;50.920;11.612;2023-12-14T14:36:06;4.00;99.90
22795;DHT22;11564;50.920;11.612;2023-12-14T14:38:33;3.80;99.90
22795;DHT22;11564;50.920;11.612;2023-12-14T14:40:59;3.80;99.90
22795;DHT22;11564;50.920;11.612;2023-12-14T14:43:24;3.80;99.90
22795;DHT22;11564;50.920;11.612;2023-12-14T14:45:50;4.00;99.90
22795;DHT22;11564;50.920;11.612;2023-12-14T14:48:15;4.00;99.90
22795;DHT22;11564;50.920;11.612;2023-12-14T14:50:42;3.90;99.90
22795;DHT22;11564;50.920;11.612;2023-12-14T14:53:08;3.80;99.90
22795;DHT22;11564;50.920;11.612;2023-12-14T14:55:33;3.80;99.90
22795;DHT22;11564;50.920;11.612;2023-12-14T14:58:00;3.80;99.90
22795;DHT22;11564;50.920;11.612;2023-12-14T15:00:25;3.80;99.90
22795;DHT22;11564;50.920;11.612;2023-12-14T15:02:52;3.90;99.90
22795;DHT22;11564;50.920;11.612;2023-12-14T15:05:17;3.90;99.90
22795;DHT22;11564;50.920;11.612;2023-12-14T15:07:42;4.10;99.90
22795;DHT22;11564;50.920;11.612;2023-12-14T15:10:08;4.10;99.90
22795;DHT22;11564;50.920;11.612;2023-12-14T15:12:34;4.10;99.90
22795;DHT22;11564;50.920;11.612;2023-12-14T15:14:59;4.10;99.90
22795;DHT22;11564;50.920;11.612;2023-12-14T15:17:25;4.10;99.90
22795;DHT22;11564;50.920;11.612;2023-12-14T15:19:50;4.00;99.90
22795;DHT22;11564;50.920;11.612;2023-12-14T15:22:16;4.10;99.90
22795;DHT22;11564;50.920;11.612;2023-12-14T15:24:42;3.90;99.90
22795;DHT22;11564;50.920;11.612;2023-12-14T15:27:07;3.90;99.90